Time;durP1;ratioP1;P1;durP2;ratioP2;P2;SDS_P1;SDS_P2;PMS_P1;PMS_P2;Temp;Humidity;BMP_temperature;BMP_pressure;BME280_temperature;BME280_humidity;BME280_pressure;Samples;Min_cycle;Max_cycle;Signal;HPM_P1;HPM_P2
2024/02/03 00:00:26;;;;;;;4.15;2.33;;;4.80;1.00;;;;;;7380943;19;20016;-70
2024/02/03 00:02:57;;;;;;;3.45;2.00;;;5.00;1.00;;;;;;7384371;19;20010;-70
2024/02/03 00:05:29;;;;;;;2.75;2.00;;;5.00;1.00;;;;;;7382763;19;20519;-69
2024/02/03 00:08:00;;;;;;;2.33;1.90;;;5.30;1.00;;;;;;7382448;19;20010;-75
2024/02/03 00:10:30;;;;;;;3.55;1.65;;;5.70;1.00;;;;;;7382189;19;20023;-70
2024/02/03 00:13:00;;;;;;;2.55;1.73;;;5.70;1.00;;;;;;7383267;19;20019;-69
2024/02/03 00:15:31;;;;;;;3.22;1.90;;;5.70;1.00;;;;;;7378626;19;20011;-69
2024/02/03 00:18:01;;;;;;;2.58;1.60;;;5.60;1.00;;;;;;7376817;19;20014;-70
2024/02/03 00:20:34;;;;;;;2.70;2.00;;;5.60;1.00;;;;;;7380020;19;20090;-70
2024/02/03 00:23:05;;;;;;;4.00;2.38;;;5.50;1.00;;;;;;7379668;19;20011;-71
2024/02/03 00:25:35;;;;;;;3.72;2.17;;;5.40;1.00;;;;;;7380926;19;20036;-70
2024/02/03 00:28:06;;;;;;;3.17;2.08;;;5.40;1.00;;;;;;7381647;19;20021;-72
2024/02/03 00:30:36;;;;;;;3.08;1.95;;;5.40;1.00;;;;;;7381143;19;20460;-71
2024/02/03 00:33:07;;;;;;;3.58;2.28;;;5.40;1.00;;;;;;7381446;19;20003;-70
2024/02/03 00:35:40;;;;;;;3.92;2.38;;;5.60;1.00;;;;;;7381292;19;20018;-70
2024/02/03 00:38:10;;;;;;;4.57;2.65;;;5.50;1.00;;;;;;7383698;19;20471;-70
2024/02/03 00:40:40;;;;;;;4.05;2.58;;;5.20;1.00;;;;;;7381516;19;20415;-70
2024/02/03 00:43:10;;;;;;;3.13;2.60;;;5.00;1.00;;;;;;7381423;19;20014;-70
2024/02/03 00:45:40;;;;;;;3.53;2.50;;;4.80;1.00;;;;;;7380778;19;20006;-70
2024/02/03 00:48:11;;;;;;;3.97;2.33;;;4.80;1.00;;;;;;7382098;19;20014;-70
2024/02/03 00:50:44;;;;;;;4.15;2.67;;;4.80;1.00;;;;;;7380205;19;20497;-71
2024/02/03 00:53:14;;;;;;;5.63;2.63;;;4.80;1.00;;;;;;7380929;19;20014;-70
2024/02/03 00:55:44;;;;;;;4.88;2.85;;;4.70;1.00;;;;;;7381999;19;20006;-71
2024/02/03 00:58:15;;;;;;;3.70;2.50;;;4.60;1.00;;;;;;7380838;19;20007;-71
2024/02/03 01:00:45;;;;;;;5.45;4.07;;;4.60;1.00;;;;;;7380172;19;20036;-70
2024/02/03 01:03:15;;;;;;;6.13;4.75;;;4.50;1.00;;;;;;7379737;19;20045;-71
2024/02/03 01:05:49;;;;;;;6.50;4.78;;;4.20;1.00;;;;;;7380752;19;20076;-70
2024/02/03 01:08:19;;;;;;;5.47;3.90;;;4.20;1.00;;;;;;7380954;19;20035;-71
2024/02/03 01:10:49;;;;;;;6.28;4.45;;;4.20;1.00;;;;;;7380015;19;20018;-70
2024/02/03 01:13:19;;;;;;;7.15;4.25;;;4.10;1.00;;;;;;7379097;19;20471;-71
2024/02/03 01:15:50;;;;;;;4.28;3.60;;;4.10;1.00;;;;;;7381602;19;20006;-71
2024/02/03 01:18:20;;;;;;;6.00;3.78;;;4.10;1.00;;;;;;7382401;19;20011;-71
2024/02/03 01:20:53;;;;;;;4.85;3.53;;;4.10;1.00;;;;;;7379785;19;20010;-71
2024/02/03 01:23:23;;;;;;;6.25;3.90;;;4.00;1.00;;;;;;7379908;19;20026;-71
2024/02/03 01:25:53;;;;;;;6.22;3.60;;;4.00;1.00;;;;;;7380117;19;20471;-71
2024/02/03 01:28:23;;;;;;;5.18;4.00;;;3.90;1.00;;;;;;7379811;19;20010;-70
2024/02/03 01:30:53;;;;;;;7.07;4.32;;;3.80;1.00;;;;;;7380319;19;20074;-70
2024/02/03 01:33:25;;;;;;;5.15;3.97;;;3.90;1.00;;;;;;7379347;19;20006;-71
2024/02/03 01:35:58;;;;;;;7.65;4.10;;;4.00;1.00;;;;;;7381005;19;20503;-70
2024/02/03 01:38:28;;;;;;;5.07;3.42;;;4.10;1.00;;;;;;7380776;19;20017;-71
2024/02/03 01:40:58;;;;;;;5.45;3.30;;;4.20;1.00;;;;;;7380735;19;20032;-70
2024/02/03 01:43:29;;;;;;;6.60;4.03;;;4.10;1.00;;;;;;7381149;19;20082;-70
2024/02/03 01:45:59;;;;;;;7.90;3.60;;;4.00;1.00;;;;;;7382598;19;20472;-72
2024/02/03 01:48:29;;;;;;;4.22;3.28;;;3.90;1.00;;;;;;7382355;19;20022;-71
2024/02/03 01:51:03;;;;;;;5.35;3.70;;;3.90;1.00;;;;;;7376181;19;20035;-70
2024/02/03 01:53:33;;;;;;;5.45;3.35;;;3.90;1.00;;;;;;7378801;19;20010;-71
2024/02/03 01:56:04;;;;;;;6.05;3.30;;;4.00;1.00;;;;;;7380473;19;20014;-70
2024/02/03 01:58:35;;;;;;;4.22;3.20;;;3.90;1.00;;;;;;7379899;19;20074;-69
2024/02/03 02:01:06;;;;;;;4.38;3.33;;;4.10;1.00;;;;;;7378576;19;20007;-71
2024/02/03 02:03:37;;;;;;;7.45;3.55;;;4.10;1.00;;;;;;7381636;19;20015;-70
2024/02/03 02:06:11;;;;;;;4.88;3.13;;;4.10;1.00;;;;;;7380205;19;20011;-70
2024/02/03 02:08:42;;;;;;;6.43;3.45;;;4.00;1.00;;;;;;7379830;19;20006;-70
2024/02/03 02:11:12;;;;;;;5.07;3.28;;;4.00;1.00;;;;;;7377128;19;20018;-71
2024/02/03 02:13:43;;;;;;;7.05;3.45;;;4.00;1.00;;;;;;7379666;19;20010;-70
2024/02/03 02:16:13;;;;;;;4.13;3.30;;;4.00;1.00;;;;;;7378703;19;20006;-70
2024/02/03 02:18:43;;;;;;;6.00;3.67;;;4.00;1.00;;;;;;7380082;19;20007;-71
2024/02/03 02:21:16;;;;;;;4.82;3.38;;;4.10;1.00;;;;;;7377425;19;20010;-71
2024/02/03 02:23:46;;;;;;;5.40;3.88;;;4.10;1.00;;;;;;7379428;19;20440;-70
2024/02/03 02:26:17;;;;;;;6.03;4.07;;;4.10;1.00;;;;;;7377415;19;20026;-70
2024/02/03 02:28:47;;;;;;;7.32;4.50;;;4.20;1.00;;;;;;7382768;19;20394;-70
2024/02/03 02:31:18;;;;;;;8.82;4.57;;;4.20;1.00;;;;;;7382172;19;20247;-70
2024/02/03 02:33:48;;;;;;;6.30;5.00;;;4.40;1.00;;;;;;7379704;19;20036;-71
2024/02/03 02:36:21;;;;;;;5.97;5.28;;;4.70;1.00;;;;;;7378253;19;20010;-71
2024/02/03 02:38:52;;;;;;;8.45;5.28;;;5.00;1.00;;;;;;7380676;19;20463;-71
2024/02/03 02:41:22;;;;;;;8.13;4.97;;;5.10;1.00;;;;;;7376855;19;20015;-71
2024/02/03 02:43:52;;;;;;;6.55;5.07;;;5.00;1.00;;;;;;7379027;19;20010;-70
2024/02/03 02:46:26;;;;;;;6.13;5.10;;;5.10;1.00;;;;;;7378069;19;20669;-70
2024/02/03 02:48:56;;;;;;;7.93;5.18;;;5.20;1.00;;;;;;7378779;19;20014;-70
2024/02/03 02:51:29;;;;;;;7.20;5.25;;;5.10;1.00;;;;;;7375939;19;20010;-71
2024/02/03 02:53:59;;;;;;;6.22;5.05;;;5.10;1.00;;;;;;7378985;19;20010;-71
2024/02/03 02:56:30;;;;;;;10.00;5.88;;;5.20;1.00;;;;;;7378365;19;20783;-71
2024/02/03 02:59:00;;;;;;;8.35;5.80;;;5.30;1.00;;;;;;7379322;19;20022;-71
2024/02/03 03:01:30;;;;;;;7.75;4.88;;;5.20;1.00;;;;;;7374782;19;20014;-71
2024/02/03 03:04:00;;;;;;;7.60;5.20;;;5.20;1.00;;;;;;7378506;19;20039;-71
2024/02/03 03:06:33;;;;;;;6.65;5.20;;;5.10;1.00;;;;;;7376104;19;20006;-72
2024/02/03 03:09:03;;;;;;;6.20;4.70;;;5.20;1.00;;;;;;7377709;19;20082;-72
2024/02/03 03:11:33;;;;;;;6.85;5.20;;;5.10;1.00;;;;;;7373115;19;20013;-71
2024/02/03 03:14:03;;;;;;;6.53;5.20;;;5.00;1.00;;;;;;7378922;19;20030;-71
2024/02/03 03:16:34;;;;;;;6.85;5.35;;;4.90;1.00;;;;;;7372279;19;20467;-72
2024/02/03 03:19:04;;;;;;;7.05;5.38;;;4.90;1.00;;;;;;7378527;19;20082;-71
2024/02/03 03:21:37;;;;;;;6.30;5.25;;;4.80;1.00;;;;;;7377613;19;20090;-72
2024/02/03 03:24:08;;;;;;;6.15;5.07;;;4.80;1.00;;;;;;7378348;19;20006;-71
2024/02/03 03:26:43;;;;;;;7.10;4.72;;;4.60;1.00;;;;;;7378869;19;20432;-71
2024/02/03 03:29:14;;;;;;;8.25;5.90;;;4.40;1.00;;;;;;7376806;19;20738;-71
2024/02/03 03:31:45;;;;;;;7.07;4.95;;;4.30;1.00;;;;;;7376150;19;20007;-71
2024/02/03 03:34:16;;;;;;;5.95;4.85;;;4.40;1.00;;;;;;7377320;19;20011;-72
2024/02/03 03:36:48;;;;;;;7.40;5.50;;;4.40;1.00;;;;;;7378591;19;20006;-72
2024/02/03 03:39:19;;;;;;;7.43;5.32;;;4.40;1.00;;;;;;7376613;19;20014;-71
2024/02/03 03:41:49;;;;;;;6.30;5.43;;;4.40;1.00;;;;;;7377845;19;20109;-72
2024/02/03 03:44:18;;;;;;;8.02;5.30;;;4.40;1.00;;;;;;7378584;19;20365;-71
2024/02/03 03:46:48;;;;;;;7.75;5.55;;;4.40;1.00;;;;;;7378002;19;20586;-72
2024/02/03 03:49:18;;;;;;;7.32;5.53;;;4.30;1.00;;;;;;7376967;19;20029;-71
2024/02/03 03:51:52;;;;;;;9.65;5.63;;;4.30;1.00;;;;;;7376408;19;20021;-72
2024/02/03 03:54:22;;;;;;;6.57;5.60;;;4.30;1.00;;;;;;7377813;19;20021;-71
2024/02/03 03:56:52;;;;;;;6.97;5.80;;;4.20;1.00;;;;;;7376673;19;20007;-71
2024/02/03 03:59:22;;;;;;;9.18;5.70;;;4.20;1.00;;;;;;7375376;19;20018;-71
2024/02/03 04:01:53;;;;;;;7.00;5.60;;;4.20;1.00;;;;;;7374853;19;20011;-71
2024/02/03 04:04:23;;;;;;;7.30;5.80;;;4.30;1.00;;;;;;7375906;19;20014;-71
2024/02/03 04:06:55;;;;;;;7.43;5.75;;;4.40;1.00;;;;;;7375308;19;20010;-72
2024/02/03 04:09:26;;;;;;;8.57;5.55;;;4.40;1.00;;;;;;7375842;19;20061;-71
2024/02/03 04:11:56;;;;;;;10.07;6.30;;;4.50;1.00;;;;;;7375801;19;20049;-70
2024/02/03 04:14:26;;;;;;;7.63;5.85;;;4.50;1.00;;;;;;7377411;19;20014;-71
2024/02/03 04:16:56;;;;;;;8.00;6.32;;;4.50;1.00;;;;;;7376840;19;20624;-71
2024/02/03 04:19:26;;;;;;;9.27;6.18;;;4.60;1.00;;;;;;7376833;19;20018;-71
2024/02/03 04:21:59;;;;;;;8.35;6.72;;;4.50;1.00;;;;;;7376210;19;20006;-71
2024/02/03 04:24:29;;;;;;;9.68;6.78;;;4.70;1.00;;;;;;7378052;19;20010;-71
2024/02/03 04:26:59;;;;;;;7.30;5.90;;;4.70;1.00;;;;;;7376768;19;20495;-70
2024/02/03 04:29:29;;;;;;;11.23;6.88;;;4.70;1.00;;;;;;7376220;19;20010;-70
2024/02/03 04:31:59;;;;;;;9.75;7.03;;;4.80;1.00;;;;;;7376299;19;20025;-71
2024/02/03 04:34:29;;;;;;;10.98;6.97;;;4.80;1.00;;;;;;7377375;19;20047;-71
2024/02/03 04:37:02;;;;;;;13.07;7.25;;;5.00;1.00;;;;;;7377972;19;20435;-70
2024/02/03 04:39:32;;;;;;;10.48;7.70;;;5.00;1.00;;;;;;7373021;19;20492;-69
2024/02/03 04:42:02;;;;;;;11.32;8.10;;;5.00;1.00;;;;;;7372402;19;20039;-71
2024/02/03 04:44:32;;;;;;;10.57;7.78;;;5.10;1.40;;;;;;7376218;19;20405;-70
2024/02/03 04:47:03;;;;;;;11.88;7.93;;;5.10;1.00;;;;;;7378712;19;20011;-70
2024/02/03 04:49:33;;;;;;;10.52;8.07;;;5.20;7.40;;;;;;7382271;19;20006;-71
2024/02/03 04:52:06;;;;;;;11.40;8.27;;;5.20;11.40;;;;;;7376351;19;20006;-70
2024/02/03 04:54:36;;;;;;;10.98;8.50;;;5.30;14.60;;;;;;7381483;19;20006;-71
2024/02/03 04:57:07;;;;;;;12.32;9.18;;;5.30;13.20;;;;;;7383315;19;20019;-70
2024/02/03 04:59:37;;;;;;;12.80;9.00;;;5.40;15.40;;;;;;7387110;19;20014;-71
2024/02/03 05:02:07;;;;;;;11.95;8.98;;;5.60;17.50;;;;;;7382389;19;20018;-71
2024/02/03 05:04:37;;;;;;;11.23;9.25;;;5.60;7.30;;;;;;7383209;19;20022;-72
2024/02/03 05:07:10;;;;;;;11.75;9.13;;;5.60;6.80;;;;;;7382915;19;20011;-70
2024/02/03 05:09:40;;;;;;;11.93;9.13;;;5.60;5.70;;;;;;7381724;19;20023;-72
2024/02/03 05:12:10;;;;;;;13.15;8.65;;;5.70;6.40;;;;;;7381447;19;20036;-72
2024/02/03 05:14:40;;;;;;;11.40;8.80;;;5.80;2.20;;;;;;7382782;19;20499;-72
2024/02/03 05:17:10;;;;;;;10.75;8.30;;;5.80;1.70;;;;;;7382187;19;20359;-71
2024/02/03 05:19:40;;;;;;;12.02;8.82;;;5.90;1.10;;;;;;7380852;19;20010;-71
2024/02/03 05:22:13;;;;;;;12.45;8.52;;;5.90;1.00;;;;;;7380426;19;20014;-71
2024/02/03 05:24:43;;;;;;;12.10;8.80;;;6.00;1.00;;;;;;7381460;19;20518;-71
2024/02/03 05:27:13;;;;;;;12.43;9.40;;;5.90;1.00;;;;;;7381987;19;20018;-70
2024/02/03 05:29:43;;;;;;;12.15;9.63;;;5.90;1.00;;;;;;7381413;19;20398;-71
2024/02/03 05:32:14;;;;;;;11.25;9.10;;;6.00;1.00;;;;;;7380429;19;20010;-70
2024/02/03 05:34:44;;;;;;;9.85;8.73;;;6.00;1.00;;;;;;7381452;19;20011;-71
2024/02/03 05:37:17;;;;;;;12.63;9.45;;;6.00;1.00;;;;;;7382145;19;20015;-71
2024/02/03 05:39:47;;;;;;;11.45;9.02;;;6.10;1.00;;;;;;7380744;19;20010;-71
2024/02/03 05:42:17;;;;;;;12.43;8.73;;;6.10;1.00;;;;;;7381257;19;20031;-71
2024/02/03 05:44:51;;;;;;;10.50;8.20;;;6.10;1.00;;;;;;7381162;19;20031;-71
2024/02/03 05:47:21;;;;;;;10.50;8.55;;;6.10;1.00;;;;;;7382194;19;20021;-71
2024/02/03 05:49:51;;;;;;;13.02;8.95;;;6.20;1.00;;;;;;7378907;19;20028;-71
2024/02/03 05:52:24;;;;;;;13.13;9.50;;;6.10;1.00;;;;;;7381591;19;20073;-71
2024/02/03 05:54:54;;;;;;;11.90;8.77;;;6.20;4.20;;;;;;7382051;19;20011;-71
2024/02/03 05:57:24;;;;;;;11.43;9.18;;;6.10;6.00;;;;;;7381844;19;20482;-71
2024/02/03 05:59:54;;;;;;;12.35;9.77;;;6.20;8.20;;;;;;7381074;19;20039;-71
2024/02/03 06:02:24;;;;;;;14.68;10.88;;;6.20;12.70;;;;;;7381036;19;20480;-71
2024/02/03 06:04:54;;;;;;;12.75;10.02;;;6.30;15.60;;;;;;7381035;19;20033;-70
2024/02/03 06:07:27;;;;;;;12.05;10.73;;;6.30;21.20;;;;;;7382972;19;20018;-71
2024/02/03 06:09:57;;;;;;;12.85;10.93;;;6.30;26.10;;;;;;7378484;19;20022;-70
2024/02/03 06:12:27;;;;;;;13.35;10.40;;;6.30;37.20;;;;;;7380894;19;21320;-71
2024/02/03 06:14:57;;;;;;;12.13;9.95;;;6.30;58.90;;;;;;7379871;19;20037;-71
2024/02/03 06:17:27;;;;;;;13.98;11.07;;;6.30;72.40;;;;;;7382521;19;20567;-70
2024/02/03 06:19:57;;;;;;;15.32;10.55;;;6.30;91.40;;;;;;7379882;19;20030;-71
2024/02/03 06:22:30;;;;;;;15.38;11.45;;;6.30;94.50;;;;;;7380789;19;20034;-69
2024/02/03 06:25:00;;;;;;;15.02;11.15;;;6.30;99.90;;;;;;7380430;19;20078;-71
2024/02/03 06:27:30;;;;;;;13.70;10.68;;;6.30;99.90;;;;;;7381165;19;20495;-71
2024/02/03 06:30:00;;;;;;;13.38;10.68;;;6.30;99.90;;;;;;7377374;19;20013;-71
2024/02/03 06:32:31;;;;;;;13.73;11.30;;;6.30;99.90;;;;;;7379619;19;20117;-71
2024/02/03 06:35:01;;;;;;;16.63;11.95;;;6.30;99.90;;;;;;7379089;19;20010;-70
2024/02/03 06:37:34;;;;;;;16.33;11.25;;;6.30;99.90;;;;;;7380156;19;20380;-72
2024/02/03 06:40:05;;;;;;;14.82;11.30;;;6.30;99.90;;;;;;7378753;19;20022;-71
2024/02/03 06:42:35;;;;;;;17.23;12.18;;;6.30;99.90;;;;;;7378650;19;20455;-71
2024/02/03 06:45:06;;;;;;;15.63;11.65;;;6.40;99.90;;;;;;7378113;19;20006;-70
2024/02/03 06:47:36;;;;;;;17.55;12.23;;;6.30;99.90;;;;;;7379618;19;20085;-71
2024/02/03 06:50:07;;;;;;;15.50;11.02;;;6.30;99.90;;;;;;7376189;19;20011;-71
2024/02/03 06:52:40;;;;;;;16.08;11.30;;;6.30;99.90;;;;;;7376489;19;20045;-71
2024/02/03 06:55:11;;;;;;;13.88;11.23;;;6.30;99.90;;;;;;7375709;19;20014;-70
2024/02/03 06:57:41;;;;;;;13.75;10.65;;;6.30;99.90;;;;;;7377624;19;20011;-71
2024/02/03 07:00:12;;;;;;;13.43;9.57;;;6.30;99.90;;;;;;7376795;19;20006;-70
2024/02/03 07:02:43;;;;;;;10.82;9.43;;;6.40;99.90;;;;;;7375817;19;20067;-70
2024/02/03 07:05:13;;;;;;;13.45;10.25;;;6.40;99.90;;;;;;7376453;19;20394;-71
2024/02/03 07:07:45;;;;;;;14.88;9.27;;;6.30;99.90;;;;;;7377047;19;20014;-71
2024/02/03 07:10:16;;;;;;;13.85;9.82;;;6.30;99.90;;;;;;7374146;19;20007;-70
2024/02/03 07:12:46;;;;;;;13.75;10.18;;;6.40;99.90;;;;;;7377512;19;20022;-71
2024/02/03 07:15:17;;;;;;;14.32;10.73;;;6.40;99.90;;;;;;7377607;19;20022;-71
2024/02/03 07:17:47;;;;;;;13.88;9.98;;;6.40;99.90;;;;;;7378670;19;20039;-71
2024/02/03 07:20:17;;;;;;;12.48;9.50;;;6.30;99.90;;;;;;7376512;19;20007;-71
2024/02/03 07:22:49;;;;;;;13.70;10.55;;;6.40;99.90;;;;;;7375747;19;20010;-71
2024/02/03 07:25:19;;;;;;;11.77;9.45;;;6.40;99.90;;;;;;7375807;19;20014;-71
2024/02/03 07:27:49;;;;;;;12.80;9.52;;;6.30;99.90;;;;;;7381177;19;20022;-71
2024/02/03 07:30:20;;;;;;;11.43;9.40;;;6.30;99.90;;;;;;7376708;19;20405;-70
2024/02/03 07:32:50;;;;;;;12.50;9.45;;;6.30;99.90;;;;;;7376133;19;20013;-70
2024/02/03 07:35:20;;;;;;;12.20;9.80;;;6.30;99.90;;;;;;7376452;19;20508;-72
2024/02/03 07:37:53;;;;;;;12.45;9.10;;;6.30;99.90;;;;;;7378349;19;20082;-70
2024/02/03 07:40:23;;;;;;;9.85;8.13;;;6.30;99.90;;;;;;7377427;19;20074;-69
2024/02/03 07:42:52;;;;;;;10.52;8.77;;;6.30;99.90;;;;;;7374808;19;20013;-71
2024/02/03 07:45:23;;;;;;;10.65;8.60;;;6.30;99.90;;;;;;7375552;19;20022;-71
2024/02/03 07:47:53;;;;;;;11.43;8.05;;;6.30;99.90;;;;;;7375703;19;20021;-70
2024/02/03 07:50:23;;;;;;;10.93;8.70;;;6.30;99.90;;;;;;7374083;19;20104;-71
2024/02/03 07:52:56;;;;;;;11.15;8.98;;;6.30;99.90;;;;;;7375802;19;20018;-72
2024/02/03 07:55:27;;;;;;;10.80;8.70;;;6.30;99.90;;;;;;7376996;19;20010;-71
2024/02/03 07:57:57;;;;;;;12.85;8.73;;;6.30;99.90;;;;;;7376971;19;20020;-71
2024/02/03 08:00:27;;;;;;;11.35;8.07;;;6.30;99.90;;;;;;7373623;19;20026;-71
2024/02/03 08:02:57;;;;;;;10.75;8.02;;;6.30;99.90;;;;;;7374522;19;20109;-72
2024/02/03 08:05:27;;;;;;;10.85;8.30;;;6.30;99.90;;;;;;7376415;19;20402;-72
2024/02/03 08:08:00;;;;;;;12.48;9.07;;;6.30;99.90;;;;;;7374386;19;20094;-71
2024/02/03 08:10:30;;;;;;;16.38;9.35;;;6.30;99.90;;;;;;7373234;19;20753;-71
2024/02/03 08:13:00;;;;;;;12.70;7.97;;;6.30;99.90;;;;;;7373782;19;20033;-71
2024/02/03 08:15:30;;;;;;;9.65;7.13;;;6.30;99.90;;;;;;7366251;19;20014;-69
2024/02/03 08:18:00;;;;;;;10.35;7.22;;;6.30;99.90;;;;;;7366501;19;20833;-72
2024/02/03 08:20:31;;;;;;;9.75;7.75;;;6.30;99.90;;;;;;7366609;19;20368;-71
2024/02/03 08:23:04;;;;;;;8.15;6.80;;;6.30;99.90;;;;;;7373547;19;20018;-71
2024/02/03 08:25:34;;;;;;;11.82;8.43;;;6.30;99.90;;;;;;7373897;19;20428;-72
2024/02/03 08:28:04;;;;;;;16.73;7.40;;;6.30;99.90;;;;;;7374182;19;20054;-70
2024/02/03 08:30:34;;;;;;;10.55;7.10;;;6.40;99.90;;;;;;7371225;19;20429;-71
2024/02/03 08:33:04;;;;;;;9.13;6.00;;;6.30;99.90;;;;;;7369572;19;20027;-72
2024/02/03 08:35:34;;;;;;;8.73;6.82;;;6.40;99.90;;;;;;7373783;19;20044;-71
2024/02/03 08:38:07;;;;;;;8.75;7.13;;;6.40;99.90;;;;;;7374961;19;20064;-70
2024/02/03 08:40:37;;;;;;;11.32;7.65;;;6.40;99.90;;;;;;7372373;19;20028;-71
2024/02/03 08:43:08;;;;;;;9.10;6.78;;;6.40;99.90;;;;;;7373051;19;20037;-71
2024/02/03 08:45:38;;;;;;;11.23;7.85;;;6.30;99.90;;;;;;7373063;19;20006;-71
2024/02/03 08:48:09;;;;;;;12.02;7.88;;;6.40;99.90;;;;;;7374195;19;20706;-71
2024/02/03 08:50:39;;;;;;;11.93;7.75;;;6.40;99.90;;;;;;7372638;19;20018;-71
2024/02/03 08:53:12;;;;;;;11.23;7.75;;;6.40;99.90;;;;;;7371259;19;20806;-70
2024/02/03 08:55:42;;;;;;;12.27;8.10;;;6.30;99.90;;;;;;7370270;19;20491;-71
2024/02/03 08:58:12;;;;;;;10.95;7.57;;;6.40;99.90;;;;;;7375165;19;20786;-70
2024/02/03 09:00:42;;;;;;;8.70;7.05;;;6.40;99.90;;;;;;7371620;19;20018;-71
2024/02/03 09:03:13;;;;;;;10.70;7.30;;;6.40;99.90;;;;;;7372890;19;20007;-71
2024/02/03 09:05:43;;;;;;;10.60;7.43;;;6.30;99.90;;;;;;7369820;19;20630;-71
2024/02/03 09:08:16;;;;;;;10.77;7.43;;;6.30;99.90;;;;;;7374897;19;20006;-72
2024/02/03 09:10:46;;;;;;;12.20;7.68;;;6.30;99.90;;;;;;7370523;19;20487;-71
2024/02/03 09:13:16;;;;;;;12.20;8.38;;;6.30;99.90;;;;;;7371243;19;20014;-72
2024/02/03 09:15:46;;;;;;;14.13;7.88;;;6.20;99.90;;;;;;7373247;19;20010;-70
2024/02/03 09:18:16;;;;;;;9.68;7.45;;;6.30;99.90;;;;;;7371521;19;20010;-72
2024/02/03 09:20:46;;;;;;;11.20;8.32;;;6.30;99.90;;;;;;7372204;19;20055;-71
2024/02/03 09:23:19;;;;;;;11.15;7.53;;;6.30;99.90;;;;;;7369031;19;20040;-71
2024/02/03 09:25:49;;;;;;;9.98;7.45;;;6.30;99.90;;;;;;7371221;19;20134;-72
2024/02/03 09:28:19;;;;;;;8.38;6.85;;;6.30;99.90;;;;;;7373753;19;20015;-72
2024/02/03 09:30:49;;;;;;;11.90;7.28;;;6.40;99.90;;;;;;7369375;19;20032;-71
2024/02/03 09:33:19;;;;;;;10.05;7.32;;;6.30;99.90;;;;;;7365444;19;20032;-71
2024/02/03 09:35:49;;;;;;;10.38;8.00;;;6.40;99.90;;;;;;7371786;19;20475;-71
2024/02/03 09:38:22;;;;;;;10.05;7.75;;;6.40;99.90;;;;;;7370481;19;20007;-71
2024/02/03 09:40:55;;;;;;;10.75;7.82;;;6.40;99.90;;;;;;7368541;19;20015;-71
2024/02/03 09:43:27;;;;;;;11.93;7.47;;;6.40;99.90;;;;;;7371271;19;20505;-70
2024/02/03 09:45:58;;;;;;;12.55;7.78;;;6.40;99.90;;;;;;7370475;19;20031;-70
2024/02/03 09:48:29;;;;;;;9.63;7.32;;;6.60;99.90;;;;;;7371381;19;20010;-71
2024/02/03 09:50:59;;;;;;;9.00;7.35;;;6.70;99.90;;;;;;7371215;19;20014;-71
2024/02/03 09:53:32;;;;;;;9.50;7.22;;;6.70;99.90;;;;;;7371201;19;20078;-73
2024/02/03 09:56:02;;;;;;;9.05;6.50;;;6.70;99.90;;;;;;7373424;19;20070;-72
2024/02/03 09:58:32;;;;;;;9.38;6.55;;;6.70;99.90;;;;;;7375721;19;20017;-71
2024/02/03 10:01:03;;;;;;;8.70;6.53;;;6.90;99.90;;;;;;7369991;19;20789;-69
2024/02/03 10:03:35;;;;;;;9.65;6.63;;;6.80;99.90;;;;;;7371707;19;20029;-73
2024/02/03 10:06:06;;;;;;;9.95;6.70;;;7.00;99.90;;;;;;7371407;19;20102;-71
2024/02/03 10:08:39;;;;;;;7.60;5.75;;;7.20;99.90;;;;;;7371546;19;20002;-71
2024/02/03 10:11:09;;;;;;;7.38;5.60;;;7.30;99.90;;;;;;7369628;19;20356;-71
2024/02/03 10:13:39;;;;;;;6.35;4.93;;;7.40;99.90;;;;;;7371634;19;20125;-71
2024/02/03 10:16:09;;;;;;;7.60;5.15;;;7.50;77.80;;;;;;7369500;19;21004;-71
2024/02/03 10:18:39;;;;;;;5.72;4.35;;;7.70;48.40;;;;;;7370542;19;20010;-72
2024/02/03 10:21:09;;;;;;;5.47;4.53;;;7.90;33.00;;;;;;7369414;19;20010;-72
2024/02/03 10:23:52;;;;;;;6.72;5.22;;;8.10;8.10;;;;;;7370299;19;20014;-72
2024/02/03 10:26:22;;;;;;;5.50;4.53;;;8.30;1.00;;;;;;7371414;19;20384;-72
2024/02/03 10:28:52;;;;;;;4.20;3.58;;;8.40;1.00;;;;;;7369218;19;20007;-72
2024/02/03 10:31:22;;;;;;;4.28;3.58;;;8.50;1.00;;;;;;7369231;19;20039;-71
2024/02/03 10:33:52;;;;;;;4.72;3.83;;;8.50;1.00;;;;;;7371452;19;20014;-72
2024/02/03 10:36:22;;;;;;;4.53;3.40;;;8.50;1.00;;;;;;7367791;19;20134;-71
2024/02/03 10:38:55;;;;;;;6.65;3.58;;;8.40;1.00;;;;;;7369765;19;20077;-71
2024/02/03 10:41:31;;;;;;;4.40;3.28;;;8.70;1.00;;;;;;7366535;19;20014;-71
2024/02/03 10:44:05;;;;;;;4.43;3.10;;;8.70;1.00;;;;;;7371726;19;20015;-71
2024/02/03 10:46:39;;;;;;;4.30;3.50;;;8.70;1.00;;;;;;7370032;19;20007;-71
2024/02/03 10:49:14;;;;;;;3.28;2.70;;;8.90;1.00;;;;;;7370670;19;20021;-70
2024/02/03 10:51:46;;;;;;;3.67;2.78;;;9.00;1.00;;;;;;7367724;19;20118;-71
2024/02/03 10:54:23;;;;;;;4.38;3.03;;;8.80;1.00;;;;;;7370260;19;20546;-72
2024/02/03 10:56:55;;;;;;;2.88;2.40;;;8.90;1.00;;;;;;7368572;19;20014;-71
2024/02/03 10:59:25;;;;;;;4.30;3.20;;;8.70;1.00;;;;;;7369006;19;20016;-71
2024/02/03 11:01:55;;;;;;;3.65;3.00;;;8.70;1.00;;;;;;7372368;19;20724;-72
2024/02/03 11:04:25;;;;;;;3.67;2.67;;;8.80;1.00;;;;;;7370001;19;20036;-70
2024/02/03 11:07:00;;;;;;;3.35;2.40;;;8.70;1.00;;;;;;7367635;19;20028;-70
2024/02/03 11:09:34;;;;;;;3.97;2.47;;;8.80;1.00;;;;;;7365825;19;20010;-70
2024/02/03 11:12:05;;;;;;;3.45;2.63;;;8.80;1.00;;;;;;7367431;19;20041;-71
2024/02/03 11:14:35;;;;;;;2.90;2.30;;;8.80;1.00;;;;;;7367827;19;20007;-71
2024/02/03 11:17:05;;;;;;;3.15;2.58;;;8.90;1.00;;;;;;7367019;19;20007;-71
2024/02/03 11:19:38;;;;;;;2.30;2.03;;;8.80;1.00;;;;;;7367293;19;20018;-71
2024/02/03 11:22:09;;;;;;;3.17;2.47;;;8.80;1.00;;;;;;7364959;19;20010;-71
2024/02/03 11:24:41;;;;;;;4.70;2.10;;;8.80;1.00;;;;;;7369371;19;20031;-70
2024/02/03 11:27:11;;;;;;;2.13;1.60;;;8.90;1.00;;;;;;7367241;19;20019;-70
2024/02/03 11:29:41;;;;;;;2.40;1.80;;;8.80;1.00;;;;;;7367390;19;20141;-71
2024/02/03 11:32:14;;;;;;;2.75;1.77;;;8.80;1.00;;;;;;7367154;19;20821;-70
2024/02/03 11:34:44;;;;;;;2.17;1.75;;;8.80;1.00;;;;;;7366982;19;20022;-70
2024/02/03 11:37:16;;;;;;;2.00;1.50;;;8.90;1.00;;;;;;7367593;19;20006;-70
2024/02/03 11:39:48;;;;;;;2.05;1.50;;;9.00;1.00;;;;;;7366214;19;20014;-71
2024/02/03 11:42:19;;;;;;;3.30;1.80;;;9.00;1.00;;;;;;7366472;19;20010;-69
2024/02/03 11:44:54;;;;;;;1.58;1.13;;;9.00;1.00;;;;;;7369051;19;20077;-71
2024/02/03 11:47:25;;;;;;;2.25;1.30;;;9.00;1.00;;;;;;7366810;19;20046;-71
2024/02/03 11:49:55;;;;;;;1.40;0.90;;;8.90;1.00;;;;;;7366492;19;20007;-71
2024/02/03 11:52:25;;;;;;;0.95;0.77;;;9.00;1.00;;;;;;7364419;19;20066;-71
2024/02/03 11:54:58;;;;;;;1.23;0.90;;;8.90;1.00;;;;;;7367195;19;20038;-71
2024/02/03 11:57:28;;;;;;;1.23;0.75;;;8.80;1.00;;;;;;7365594;19;20014;-71
2024/02/03 12:00:05;;;;;;;1.73;0.90;;;8.90;1.00;;;;;;7366347;19;20010;-70
2024/02/03 12:02:35;;;;;;;1.17;0.90;;;9.00;1.00;;;;;;7364799;19;20058;-70
2024/02/03 12:05:06;;;;;;;1.27;0.82;;;9.10;1.00;;;;;;7368498;19;20021;-70
2024/02/03 12:07:40;;;;;;;1.02;0.60;;;9.00;1.00;;;;;;7366897;19;20017;-71
2024/02/03 12:10:14;;;;;;;1.15;0.70;;;8.90;1.00;;;;;;7367843;19;20021;-71
2024/02/03 12:12:44;;;;;;;1.83;0.52;;;8.90;1.00;;;;;;7366346;19;20010;-71
2024/02/03 12:15:14;;;;;;;2.17;0.60;;;9.00;1.00;;;;;;7363064;19;20015;-71
2024/02/03 12:17:45;;;;;;;1.13;0.70;;;8.90;1.00;;;;;;7365151;19;20070;-71
2024/02/03 12:20:25;;;;;;;1.20;0.60;;;9.00;1.00;;;;;;7362935;19;20014;-70
2024/02/03 12:22:56;;;;;;;0.80;0.60;;;9.10;1.00;;;;;;7359886;19;20392;-71
2024/02/03 12:25:29;;;;;;;0.60;0.50;;;9.00;1.00;;;;;;7366696;19;20041;-70
2024/02/03 12:27:59;;;;;;;1.50;0.70;;;8.90;1.00;;;;;;7369805;19;20015;-71
2024/02/03 12:30:35;;;;;;;0.82;0.60;;;8.90;1.00;;;;;;7364812;19;20010;-70
2024/02/03 12:33:07;;;;;;;0.93;0.60;;;9.00;1.00;;;;;;7364266;19;20017;-70
2024/02/03 12:35:37;;;;;;;0.70;0.40;;;9.10;1.00;;;;;;7364353;19;20416;-70
2024/02/03 12:38:07;;;;;;;1.65;0.90;;;9.00;1.00;;;;;;7366150;19;20014;-71
2024/02/03 12:40:40;;;;;;;1.38;0.57;;;8.90;1.00;;;;;;7365163;19;20022;-70
2024/02/03 12:43:10;;;;;;;1.02;0.60;;;9.00;1.00;;;;;;7365518;19;20086;-71
2024/02/03 12:45:41;;;;;;;0.90;0.68;;;9.10;1.00;;;;;;7360652;19;20676;-72
2024/02/03 12:48:12;;;;;;;0.65;0.43;;;9.10;1.00;;;;;;7355807;19;20014;-72
2024/02/03 12:50:43;;;;;;;1.33;0.95;;;9.00;1.00;;;;;;7359955;19;20019;-72
2024/02/03 12:53:14;;;;;;;0.65;0.50;;;9.00;1.00;;;;;;7355888;19;20348;-72
2024/02/03 12:55:48;;;;;;;1.42;0.75;;;9.00;1.00;;;;;;7349703;19;20522;-72
2024/02/03 12:58:22;;;;;;;;;;;9.10;1.00;;;;;;7357224;19;20106;-72
2024/02/03 13:00:54;;;;;;;0.95;0.55;;;9.10;1.00;;;;;;7352852;19;19923;-72
2024/02/03 13:03:26;;;;;;;0.77;0.55;;;9.10;1.00;;;;;;7350597;19;20816;-71
2024/02/03 13:05:57;;;;;;;0.45;0.30;;;9.10;1.00;;;;;;7354848;19;20018;-71
2024/02/03 13:08:29;;;;;;;0.60;0.50;;;9.20;1.00;;;;;;7356243;19;20006;-72
2024/02/03 13:11:05;;;;;;;0.70;0.50;;;9.10;1.00;;;;;;7361796;19;20479;-72
2024/02/03 13:13:36;;;;;;;0.63;0.60;;;9.20;1.00;;;;;;7362402;19;20025;-72
2024/02/03 13:16:11;;;;;;;0.50;0.40;;;9.20;1.00;;;;;;7359975;19;20082;-72
2024/02/03 13:18:42;;;;;;;0.55;0.50;;;9.10;1.00;;;;;;7360892;19;20393;-72